TimeCDT,TemperatureF,Dew PointF,Humidity,Sea Level PressureIn,VisibilityMPH,Wind Direction,Wind SpeedMPH,Gust SpeedMPH,PrecipitationIn,Events,Conditions,WindDirDegrees,DateUTC
12:53 AM,57.9,46.9,67,29.78,10.0,South,11.5,-,N/A,,Mostly Cloudy,170,2013-03-10 06:53:00
1:30 AM,57.2,46.4,67,29.82,10.0,SSW,11.5,19.6,0.01,,Overcast,200,2013-03-10 07:30:00
1:42 AM,57.2,48.2,72,29.80,4.0,South,11.5,21.9,0.07,Rain-Thunderstorm,Thunderstorms and Rain,190,2013-03-10 07:42:00
1:53 AM,55.9,48.9,77,29.77,8.0,South,9.2,16.1,0.07,Rain,Light Rain,180,2013-03-10 07:53:00
3:08 AM,55.4,48.2,77,29.78,10.0,South,10.4,-,0.00,,Mostly Cloudy,180,2013-03-10 08:08:00
3:53 AM,55.9,51.1,84,29.75,10.0,South,10.4,18.4,0.00,,Overcast,180,2013-03-10 08:53:00
4:53 AM,55.9,52.0,87,29.74,6.0,South,11.5,18.4,0.01,Rain,Light Rain,180,2013-03-10 09:53:00
5:20 AM,55.4,53.6,94,29.75,5.0,SSE,10.4,-,0.02,Rain,Light Rain,160,2013-03-10 10:20:00
5:41 AM,55.4,53.6,94,29.75,5.0,South,12.7,-,0.04,Rain,Light Rain,170,2013-03-10 10:41:00
5:53 AM,55.0,53.1,93,29.73,5.0,South,9.2,-,0.04,Rain,Light Rain,170,2013-03-10 10:53:00
6:03 AM,55.4,53.6,94,29.74,6.0,South,9.2,-,0.00,,Overcast,180,2013-03-10 11:03:00
6:46 AM,53.6,51.8,94,29.73,2.5,SE,4.6,-,0.11,Rain,Light Rain,140,2013-03-10 11:46:00
7:07 AM,53.6,51.8,94,29.73,2.0,ESE,4.6,-,0.05,Rain,Rain,120,2013-03-10 12:07:00
7:18 AM,53.6,51.8,94,29.72,1.8,East,6.9,-,0.11,Rain,Heavy Rain,90,2013-03-10 12:18:00
7:37 AM,53.6,51.8,94,29.71,2.0,Calm,Calm,-,0.19,Rain,Rain,0,2013-03-10 12:37:00
7:44 AM,53.6,51.8,94,29.71,1.8,ESE,3.5,-,0.21,Rain,Rain,110,2013-03-10 12:44:00
7:47 AM,53.6,51.8,94,29.70,2.0,ESE,3.5,-,0.22,Rain,Rain,120,2013-03-10 12:47:00
7:53 AM,53.1,52.0,96,29.69,2.5,Calm,Calm,-,0.23,Rain,Light Rain,0,2013-03-10 12:53:00
8:01 AM,53.6,51.8,94,29.70,1.8,West,3.5,-,0.02,Rain,Light Rain,280,2013-03-10 13:01:00
8:17 AM,53.6,51.8,94,29.70,1.0,NW,3.5,-,0.08,Rain,Rain,320,2013-03-10 13:17:00
8:32 AM,53.6,51.8,94,29.69,1.0,North,3.5,-,0.12,Rain,Rain,350,2013-03-10 13:32:00
8:48 AM,53.6,51.8,94,29.66,0.5,North,4.6,-,0.17,Fog-Rain,Rain,10,2013-03-10 13:48:00
8:53 AM,53.1,52.0,96,29.67,0.5,Calm,Calm,-,0.19,Fog-Rain,Rain,0,2013-03-10 13:53:00
9:24 AM,53.6,51.8,94,29.68,0.8,North,3.5,-,0.15,Rain,Rain,360,2013-03-10 14:24:00
9:29 AM,53.6,51.8,94,29.71,0.8,West,9.2,-,0.17,Rain,Rain,270,2013-03-10 14:29:00
9:37 AM,51.8,50.0,94,29.74,1.0,WNW,21.9,26.5,0.26,Rain,Heavy Rain,300,2013-03-10 14:37:00
9:48 AM,51.8,48.2,88,29.74,1.0,WNW,13.8,23.0,0.38,Rain,Heavy Rain,290,2013-03-10 14:48:00
9:53 AM,51.1,48.9,92,29.73,1.2,West,18.4,26.5,0.41,Rain,Heavy Rain,280,2013-03-10 14:53:00
10:07 AM,50.0,46.4,87,29.74,2.5,NW,18.4,27.6,0.07,Rain,Rain,310,2013-03-10 15:07:00
10:15 AM,50.0,46.4,87,29.72,5.0,NW,16.1,27.6,0.08,Rain,Light Rain,310,2013-03-10 15:15:00
10:53 AM,48.9,45.0,86,29.76,2.5,WNW,9.2,19.6,0.13,Rain,Rain,290,2013-03-10 15:53:00
11:07 AM,48.2,44.6,87,29.77,5.0,WNW,9.2,18.4,0.02,Rain,Light Rain,290,2013-03-10 16:07:00
11:53 AM,48.0,46.0,93,29.77,3.0,WNW,9.2,-,0.10,Rain,Light Rain,290,2013-03-10 16:53:00
12:14 PM,48.2,46.4,93,29.79,2.0,West,5.8,-,0.05,Rain,Rain,270,2013-03-10 17:14:00
12:26 PM,48.2,46.4,93,29.78,1.0,Calm,Calm,-,0.13,Rain,Heavy Rain,0,2013-03-10 17:26:00
12:39 PM,48.2,44.6,87,29.77,2.0,ESE,4.6,-,0.18,Rain,Rain,110,2013-03-10 17:39:00
12:48 PM,48.2,46.4,93,29.75,4.0,East,4.6,-,0.20,Rain,Rain,90,2013-03-10 17:48:00
12:53 PM,48.0,46.0,93,29.73,4.0,East,5.8,-,0.22,Rain,Rain,90,2013-03-10 17:53:00
1:45 PM,48.2,46.4,93,29.67,9.0,ENE,5.8,-,0.07,Rain,Light Rain,70,2013-03-10 18:45:00
1:53 PM,48.0,46.0,93,29.65,10.0,ESE,8.1,-,0.07,Rain,Light Rain,120,2013-03-10 18:53:00
2:09 PM,48.2,46.4,93,29.69,5.0,South,3.5,-,0.01,Rain,Light Rain,170,2013-03-10 19:09:00
2:38 PM,48.2,46.4,93,29.69,10.0,South,4.6,-,0.01,,Overcast,170,2013-03-10 19:38:00
2:53 PM,50.0,48.0,93,29.69,10.0,South,8.1,-,0.01,,Overcast,170,2013-03-10 19:53:00
3:00 PM,51.8,48.2,88,29.70,10.0,South,8.1,-,N/A,,Overcast,180,2013-03-10 20:00:00
3:15 PM,51.8,48.2,88,29.71,10.0,South,10.4,16.1,N/A,,Overcast,190,2013-03-10 20:15:00
3:53 PM,54.0,48.0,80,29.70,10.0,South,11.5,-,N/A,,Mostly Cloudy,190,2013-03-10 20:53:00
4:02 PM,53.6,48.2,82,29.71,10.0,SSW,11.5,-,N/A,,Mostly Cloudy,210,2013-03-10 21:02:00
4:13 PM,53.6,46.4,77,29.71,10.0,SW,8.1,-,N/A,,Overcast,220,2013-03-10 21:13:00
4:35 PM,53.6,46.4,77,29.70,10.0,South,11.5,-,N/A,,Mostly Cloudy,190,2013-03-10 21:35:00
4:53 PM,55.0,46.9,74,29.69,10.0,SW,11.5,-,N/A,,Scattered Clouds,220,2013-03-10 21:53:00
5:07 PM,53.6,46.4,77,29.70,10.0,SSW,12.7,18.4,N/A,,Mostly Cloudy,210,2013-03-10 22:07:00
5:18 PM,53.6,46.4,77,29.70,10.0,SSW,10.4,-,N/A,,Mostly Cloudy,200,2013-03-10 22:18:00
5:53 PM,54.0,46.9,77,29.68,10.0,South,6.9,-,N/A,,Overcast,190,2013-03-10 22:53:00
6:11 PM,48.2,44.6,87,29.72,4.0,WSW,19.6,27.6,0.03,Rain,Light Rain,250,2013-03-10 23:11:00
6:41 PM,46.4,42.8,87,29.74,10.0,West,9.2,-,0.03,,Overcast,260,2013-03-10 23:41:00
6:53 PM,46.0,42.1,86,29.74,10.0,WSW,10.4,-,0.03,,Overcast,250,2013-03-10 23:53:00
7:07 PM,46.4,42.8,87,29.75,10.0,WSW,8.1,-,N/A,,Overcast,250,2013-03-11 00:07:00
7:53 PM,45.0,39.0,80,29.78,10.0,WSW,9.2,17.3,N/A,,Overcast,250,2013-03-11 00:53:00
8:53 PM,43.0,36.0,76,29.79,10.0,West,15.0,-,N/A,,Overcast,270,2013-03-11 01:53:00
9:27 PM,42.8,35.6,76,29.80,10.0,West,12.7,19.6,N/A,,Overcast,270,2013-03-11 02:27:00
9:53 PM,41.0,36.0,82,29.82,10.0,West,13.8,18.4,N/A,,Overcast,270,2013-03-11 02:53:00
10:46 PM,39.2,33.8,81,29.82,10.0,West,12.7,21.9,N/A,,Overcast,270,2013-03-11 03:46:00
10:53 PM,39.0,34.0,82,29.83,10.0,West,12.7,20.7,N/A,,Overcast,270,2013-03-11 03:53:00
11:17 PM,37.4,33.8,87,29.83,10.0,West,13.8,19.6,N/A,,Overcast,270,2013-03-11 04:17:00
11:53 PM,37.0,32.0,82,29.85,10.0,West,11.5,-,N/A,,Overcast,260,2013-03-11 04:53:00
12:43 AM,35.6,30.2,81,29.83,10.0,West,15.0,19.6,N/A,,Overcast,270,2013-03-11 05:43:00
12:53 AM,36.0,30.0,79,29.84,10.0,West,13.8,20.7,N/A,,Overcast,270,2013-03-11 05:53:00